Time;durP1;ratioP1;P1;durP2;ratioP2;P2;SDS_P1;SDS_P2;PMS_P1;PMS_P2;Temp;Humidity;BMP_temperature;BMP_pressure;BME280_temperature;BME280_humidity;BME280_pressure;Samples;Min_cycle;Max_cycle;Signal;HPM_P1;HPM_P2
2021/06/25 00:00:23;;;;;;;;;;;;;;;22.31;58.77;101600.84;2193801;39;114527;-54
2021/06/25 00:01:55;;;;;;;;;;;;;;;22.31;58.80;101598.00;2200164;39;114362;-54
2021/06/25 00:03:27;;;;;;;;;;;;;;;22.31;58.78;101600.84;2194844;39;116201;-54
2021/06/25 00:04:59;;;;;;;;;;;;;;;22.28;58.87;101594.97;2197015;39;115480;-54
2021/06/25 00:06:31;;;;;;;;;;;;;;;22.33;58.74;101601.38;2196329;39;114289;-54
2021/06/25 00:08:03;;;;;;;;;;;;;;;22.35;58.93;101593.44;2189997;39;115483;-54
2021/06/25 00:09:34;;;;;;;;;;;;;;;22.33;58.79;101597.72;2187274;39;115629;-54
2021/06/25 00:11:06;;;;;;;;;;;;;;;22.32;58.74;101594.06;2193011;39;116110;-54
2021/06/25 00:12:38;;;;;;;;;;;;;;;22.35;58.87;101587.00;2193669;39;115799;-55
2021/06/25 00:14:10;;;;;;;;;;;;;;;22.31;58.73;101592.38;2192185;39;114788;-54
2021/06/25 00:15:42;;;;;;;;;;;;;;;22.33;58.74;101583.66;2194036;39;115386;-54
2021/06/25 00:17:14;;;;;;;;;;;;;;;22.32;58.82;101588.44;2198648;39;115587;-54
2021/06/25 00:18:45;;;;;;;;;;;;;;;22.30;58.55;101582.28;2197696;39;114705;-54
2021/06/25 00:20:17;;;;;;;;;;;;;;;22.33;58.80;101581.66;2192017;39;113864;-54
2021/06/25 00:21:50;;;;;;;;;;;;;;;22.32;58.79;101581.97;2198741;39;113939;-54
2021/06/25 00:23:21;;;;;;;;;;;;;;;22.31;58.67;101586.75;2195829;39;114098;-55
2021/06/25 00:24:53;;;;;;;;;;;;;;;22.32;58.67;101581.97;2195624;39;114340;-54
2021/06/25 00:26:25;;;;;;;;;;;;;;;22.34;58.80;101588.13;2197136;39;114000;-55
2021/06/25 00:27:56;;;;;;;;;;;;;;;22.29;58.60;101576.94;2192387;39;113780;-54
2021/06/25 00:29:28;;;;;;;;;;;;;;;22.30;58.78;101578.63;2189915;39;113973;-54
2021/06/25 00:31:00;;;;;;;;;;;;;;;22.29;58.59;101574.97;2183156;39;113790;-55
2021/06/25 00:32:32;;;;;;;;;;;;;;;22.31;58.81;101577.47;2194402;39;113880;-55
2021/06/25 00:34:04;;;;;;;;;;;;;;;22.32;58.64;101571.53;2198878;39;113837;-54
2021/06/25 00:35:37;;;;;;;;;;;;;;;22.31;58.62;101572.69;2198789;39;113841;-55
2021/06/25 00:37:08;;;;;;;;;;;;;;;22.29;58.74;101572.16;2196558;39;113826;-54
2021/06/25 00:38:40;;;;;;;;;;;;;;;22.31;58.69;101572.69;2183946;39;113743;-54
2021/06/25 00:40:13;;;;;;;;;;;;;;;22.27;58.70;101571.63;2180335;40;113751;-54
2021/06/25 00:41:44;;;;;;;;;;;;;;;22.30;58.58;101575.81;2195063;39;114127;-54
2021/06/25 00:43:16;;;;;;;;;;;;;;;22.28;58.53;101576.13;2198146;39;115515;-54
2021/06/25 00:44:48;;;;;;;;;;;;;;;22.32;58.63;101580.00;2198533;39;114825;-54
2021/06/25 00:46:20;;;;;;;;;;;;;;;22.29;58.55;101574.13;2191888;39;114758;-54
2021/06/25 00:47:51;;;;;;;;;;;;;;;22.30;58.46;101571.03;2183688;39;114764;-54
2021/06/25 00:49:23;;;;;;;;;;;;;;;22.29;58.29;101569.34;2182966;39;115632;-55
2021/06/25 00:50:55;;;;;;;;;;;;;;;22.30;58.44;101568.22;2184973;39;114550;-54
2021/06/25 00:52:26;;;;;;;;;;;;;;;22.29;58.39;101566.53;2197040;39;114887;-54
2021/06/25 00:53:58;;;;;;;;;;;;;;;22.26;58.47;101564.31;2198038;39;114891;-54
2021/06/25 00:55:41;;;;;;;;;;;;;;;22.30;58.61;101562.56;2196618;39;113941;-55
2021/06/25 00:57:14;;;;;;;;;;;;;;;22.29;58.33;101560.91;2188461;39;115007;-54
2021/06/25 00:58:45;;;;;;;;;;;;;;;22.31;58.21;101567.03;2189957;39;114072;-54
2021/06/25 01:00:17;;;;;;;;;;;;;;;22.30;58.41;101564.56;2192643;39;115837;-56
2021/06/25 01:01:49;;;;;;;;;;;;;;;22.29;58.25;101563.72;2191725;39;114980;-54
2021/06/25 01:03:21;;;;;;;;;;;;;;;22.29;58.27;101560.06;2185499;39;115954;-55
2021/06/25 01:04:53;;;;;;;;;;;;;;;22.33;58.22;101558.31;2189173;39;115978;-54
2021/06/25 01:06:25;;;;;;;;;;;;;;;22.29;58.46;101566.53;2193504;39;116225;-55
2021/06/25 01:07:57;;;;;;;;;;;;;;;22.29;58.38;101563.72;2186563;39;115757;-54
2021/06/25 01:09:28;;;;;;;;;;;;;;;22.28;58.24;101566.81;2193712;39;115917;-54
2021/06/25 01:11:00;;;;;;;;;;;;;;;22.31;58.75;101575.50;2198560;39;115752;-54
2021/06/25 01:12:32;;;;;;;;;;;;;;;22.31;57.86;101571.84;2198152;39;115856;-54
2021/06/25 01:14:04;;;;;;;;;;;;;;;22.33;57.95;101575.19;2198268;39;115506;-54
2021/06/25 01:15:36;;;;;;;;;;;;;;;22.31;57.70;101566.19;2187524;39;115839;-54
2021/06/25 01:17:26;;;;;;;;;;;;;;;22.27;57.34;101565.97;2193036;39;115458;-54
2021/06/25 01:18:57;;;;;;;;;;;;;;;22.29;57.28;101579.75;2200790;39;115382;-55
2021/06/25 01:20:30;;;;;;;;;;;;;;;22.28;57.35;101570.47;2198895;39;115704;-55
2021/06/25 01:22:03;;;;;;;;;;;;;;;22.26;56.82;101569.94;2198340;39;114809;-54
2021/06/25 01:23:37;;;;;;;;;;;;;;;22.27;57.28;101565.97;2191526;39;115740;-54
2021/06/25 01:25:09;;;;;;;;;;;;;;;22.30;56.68;101570.19;2189613;39;113626;-54
2021/06/25 01:26:42;;;;;;;;;;;;;;;22.26;56.66;101561.50;2196592;39;114501;-54
2021/06/25 01:28:14;;;;;;;;;;;;;;;22.29;56.41;101563.72;2195722;39;114001;-54
2021/06/25 01:29:46;;;;;;;;;;;;;;;22.29;56.39;101565.69;2189214;39;113811;-54
2021/06/25 01:31:17;;;;;;;;;;;;;;;22.29;56.45;101566.53;2196309;39;114181;-54
2021/06/25 01:32:49;;;;;;;;;;;;;;;22.26;55.66;101557.88;2191503;39;114809;-54
2021/06/25 01:34:21;;;;;;;;;;;;;;;22.27;55.11;101562.31;2196572;39;114059;-54
2021/06/25 01:35:54;;;;;;;;;;;;;;;22.31;55.69;101569.84;2198146;39;114199;-54
2021/06/25 01:37:26;;;;;;;;;;;;;;;22.31;55.19;101558.59;2196074;39;114149;-54
2021/06/25 01:38:59;;;;;;;;;;;;;;;22.27;54.96;101553.88;2198290;39;113756;-54
2021/06/25 01:40:31;;;;;;;;;;;;;;;22.26;54.94;101567.13;2189122;39;114186;-54
2021/06/25 01:42:06;;;;;;;;;;;;;;;22.27;54.38;101565.16;2188380;39;113866;-54
2021/06/25 01:43:38;;;;;;;;;;;;;;;22.25;54.53;101567.44;2195907;39;116841;-54
2021/06/25 01:45:10;;;;;;;;;;;;;;;22.26;54.56;101560.69;2193923;39;113744;-55
2021/06/25 01:46:43;;;;;;;;;;;;;;;22.22;54.19;101551.97;2198859;39;113731;-54
2021/06/25 01:48:14;;;;;;;;;;;;;;;22.22;54.33;101557.63;2194968;39;114762;-54
2021/06/25 01:49:46;;;;;;;;;;;;;;;22.21;54.17;101555.97;2196441;39;114367;-55
2021/06/25 01:51:18;;;;;;;;;;;;;;;22.23;54.04;101556.47;2199021;39;114752;-54
2021/06/25 01:52:51;;;;;;;;;;;;;;;22.23;54.18;101553.66;2190971;39;115060;-54
2021/06/25 01:54:23;;;;;;;;;;;;;;;22.19;53.31;101555.41;2193734;39;115280;-54
2021/06/25 01:55:57;;;;;;;;;;;;;;;22.18;53.18;101560.22;2193748;39;115636;-54
2021/06/25 01:57:31;;;;;;;;;;;;;;;22.15;52.45;101548.72;2194927;39;115087;-54
2021/06/25 01:59:02;;;;;;;;;;;;;;;22.17;52.64;101552.06;2189374;39;114789;-54
2021/06/25 02:00:34;;;;;;;;;;;;;;;22.15;53.09;101551.53;2196344;39;114860;-55
2021/06/25 02:02:06;;;;;;;;;;;;;;;22.15;52.28;101551.53;2199393;39;114169;-54
2021/06/25 02:03:39;;;;;;;;;;;;;;;22.14;52.35;101545.06;2201274;39;114801;-56
2021/06/25 02:05:12;;;;;;;;;;;;;;;22.13;52.40;101545.38;2190220;39;115553;-54
2021/06/25 02:06:44;;;;;;;;;;;;;;;22.12;52.06;101538.09;2195663;39;114992;-54
2021/06/25 02:08:16;;;;;;;;;;;;;;;22.15;52.25;101541.13;2197959;39;115032;-54
2021/06/25 02:09:48;;;;;;;;;;;;;;;22.10;52.11;101537.53;2198741;39;115634;-54
2021/06/25 02:11:22;;;;;;;;;;;;;;;22.09;52.38;101530.25;2194290;39;115523;-54
2021/06/25 02:12:54;;;;;;;;;;;;;;;22.08;51.96;101523.78;2189124;39;116335;-54
2021/06/25 02:14:26;;;;;;;;;;;;;;;22.09;52.08;101522.63;2188336;39;115566;-54
2021/06/25 02:15:57;;;;;;;;;;;;;;;22.06;52.22;101516.78;2187935;39;115617;-55
2021/06/25 02:17:29;;;;;;;;;;;;;;;22.06;52.44;101514.81;2190434;39;115627;-54
2021/06/25 02:19:01;;;;;;;;;;;;;;;22.08;51.99;101514.50;2194698;39;114712;-54
2021/06/25 02:20:32;;;;;;;;;;;;;;;22.05;52.25;101515.94;2193340;39;116055;-54
2021/06/25 02:22:04;;;;;;;;;;;;;;;22.05;52.11;101517.91;2194487;39;115976;-54
2021/06/25 02:23:36;;;;;;;;;;;;;;;22.04;52.13;101517.09;2194231;39;115637;-54
2021/06/25 02:25:09;;;;;;;;;;;;;;;22.05;52.29;101509.47;2187479;39;115637;-54
2021/06/25 02:26:41;;;;;;;;;;;;;;;22.06;52.78;101508.34;2180951;39;114589;-54
2021/06/25 02:28:12;;;;;;;;;;;;;;;22.05;52.66;101507.50;2188578;39;115774;-54
2021/06/25 02:29:44;;;;;;;;;;;;;;;22.05;52.57;101506.66;2192077;39;115035;-54
2021/06/25 02:31:17;;;;;;;;;;;;;;;22.05;52.47;101510.31;2189954;39;114133;-54
2021/06/25 02:32:48;;;;;;;;;;;;;;;22.04;52.29;101507.81;2184355;39;114181;-53
2021/06/25 02:34:20;;;;;;;;;;;;;;;22.03;52.20;101514.59;2182589;39;113872;-54
2021/06/25 02:35:52;;;;;;;;;;;;;;;22.03;52.17;101509.78;2194678;39;113921;-54
2021/06/25 02:37:24;;;;;;;;;;;;;;;22.02;52.29;101513.75;2192225;39;113903;-54
2021/06/25 02:38:55;;;;;;;;;;;;;;;22.03;52.27;101504.16;2196960;39;113793;-54
2021/06/25 02:40:27;;;;;;;;;;;;;;;22.01;52.04;101509.25;2198969;39;113743;-54
2021/06/25 02:41:59;;;;;;;;;;;;;;;22.01;52.25;101508.41;2199431;39;113789;-54
2021/06/25 02:43:31;;;;;;;;;;;;;;;22.01;52.58;101506.44;2198820;39;113879;-54
2021/06/25 02:45:04;;;;;;;;;;;;;;;22.01;52.19;101506.44;2189772;39;113627;-54
2021/06/25 02:46:35;;;;;;;;;;;;;;;22.00;52.10;101501.13;2187442;39;114780;-55
2021/06/25 02:48:07;;;;;;;;;;;;;;;22.00;52.31;101499.13;2189443;39;113838;-54
2021/06/25 02:49:39;;;;;;;;;;;;;;;22.00;51.85;101501.13;2190997;39;113739;-54
2021/06/25 02:51:11;;;;;;;;;;;;;;;22.01;52.29;101494.34;2191821;39;113836;-54
2021/06/25 02:52:42;;;;;;;;;;;;;;;21.98;52.19;101494.97;2189684;39;114924;-54
2021/06/25 02:54:14;;;;;;;;;;;;;;;22.01;52.06;101494.34;2190164;39;115327;-54
2021/06/25 02:57:27;;;;;;;;;;;;;;;21.99;52.27;101494.66;2191975;39;115219;-54
2021/06/25 02:58:59;;;;;;;;;;;;;;;21.98;51.81;101493.00;2199318;39;115080;-54
2021/06/25 03:00:31;;;;;;;;;;;;;;;21.98;51.95;101489.34;2199344;39;114961;-54
2021/06/25 03:02:03;;;;;;;;;;;;;;;21.97;51.88;101482.88;2199061;39;115448;-55
2021/06/25 03:03:35;;;;;;;;;;;;;;;21.97;51.99;101482.88;2198800;39;114057;-55
2021/06/25 03:05:09;;;;;;;;;;;;;;;21.97;52.01;101482.03;2198054;39;114016;-54
2021/06/25 03:06:40;;;;;;;;;;;;;;;21.96;52.13;101480.34;2191234;39;114956;-54
2021/06/25 03:08:13;;;;;;;;;;;;;;;21.96;51.53;101483.16;2187633;39;114873;-54
2021/06/25 03:09:44;;;;;;;;;;;;;;;21.96;51.84;101475.56;2189791;39;114494;-54
2021/06/25 03:11:16;;;;;;;;;;;;;;;21.94;52.00;101483.47;2196175;39;115132;-54
2021/06/25 03:12:48;;;;;;;;;;;;;;;21.95;51.74;101478.69;2196690;39;116349;-54
2021/06/25 03:14:19;;;;;;;;;;;;;;;21.97;51.59;101484.84;2196393;39;116059;-54
2021/06/25 03:15:51;;;;;;;;;;;;;;;21.93;51.69;101481.81;2196206;39;115755;-54
2021/06/25 03:17:23;;;;;;;;;;;;;;;21.94;51.83;101479.84;2189779;39;115633;-55
2021/06/25 03:18:54;;;;;;;;;;;;;;;21.93;51.65;101478.16;2193896;39;115343;-54
2021/06/25 03:20:26;;;;;;;;;;;;;;;21.94;51.70;101474.22;2190039;39;115678;-54
2021/06/25 03:21:59;;;;;;;;;;;;;;;21.94;51.71;101471.41;2194779;39;115479;-54
2021/06/25 03:23:30;;;;;;;;;;;;;;;21.92;51.50;101468.00;2186011;39;115827;-54
2021/06/25 03:25:03;;;;;;;;;;;;;;;21.92;51.41;101468.84;2196955;39;115467;-54
2021/06/25 03:26:35;;;;;;;;;;;;;;;21.92;51.53;101471.66;2191257;39;116419;-54
2021/06/25 03:28:07;;;;;;;;;;;;;;;21.91;51.33;101466.34;2194821;39;115698;-54
2021/06/25 03:29:39;;;;;;;;;;;;;;;21.91;51.29;101471.97;2189796;39;115526;-54
2021/06/25 03:31:14;;;;;;;;;;;;;;;21.91;51.41;101460.72;2196969;39;114756;-58
2021/06/25 03:32:45;;;;;;;;;;;;;;;21.89;51.05;101463.84;2194215;39;115118;-54
2021/06/25 03:34:17;;;;;;;;;;;;;;;21.89;51.09;101463.00;2190771;39;114575;-54
2021/06/25 03:35:49;;;;;;;;;;;;;;;21.89;50.97;101463.00;2189986;39;116072;-54
2021/06/25 03:37:21;;;;;;;;;;;;;;;21.91;51.10;101466.34;2195471;39;114016;-54
2021/06/25 03:38:53;;;;;;;;;;;;;;;21.91;51.36;101466.34;2194175;39;114073;-54
2021/06/25 03:40:27;;;;;;;;;;;;;;;21.88;50.53;101470.59;2190101;39;113741;-55
2021/06/25 03:41:59;;;;;;;;;;;;;;;21.88;50.59;101472.59;2196034;39;113776;-54
2021/06/25 03:43:31;;;;;;;;;;;;;;;21.88;50.84;101473.41;2191535;39;113822;-54
2021/06/25 03:45:09;;;;;;;;;;;;;;;21.87;50.97;101471.75;2195867;39;113921;-54
2021/06/25 03:46:41;;;;;;;;;;;;;;;21.89;50.56;101468.63;2198391;39;113904;-54
2021/06/25 03:48:12;;;;;;;;;;;;;;;21.87;50.76;101465.28;2204121;39;113593;-54
2021/06/25 03:49:44;;;;;;;;;;;;;;;21.88;50.79;101467.78;2192406;39;113989;-54
2021/06/25 03:51:16;;;;;;;;;;;;;;;21.87;50.48;101466.13;2196798;39;114170;-54
2021/06/25 03:52:50;;;;;;;;;;;;;;;21.87;50.02;101457.69;2195091;39;114134;-54
2021/06/25 03:54:22;;;;;;;;;;;;;;;21.86;50.41;101457.97;2186580;39;114053;-54
2021/06/25 03:57:34;;;;;;;;;;;;;;;21.87;50.30;101462.47;2201854;39;113717;-54
2021/06/25 03:59:06;;;;;;;;;;;;;;;21.87;50.35;101454.88;2199106;39;115143;-55
2021/06/25 04:00:37;;;;;;;;;;;;;;;21.84;50.18;101458.28;2198622;39;114866;-54
2021/06/25 04:02:10;;;;;;;;;;;;;;;21.92;49.92;101462.38;2196879;39;114963;-54
2021/06/25 04:03:42;;;;;;;;;;;;;;;21.85;49.59;101454.31;2191359;39;114904;-54
2021/06/25 04:05:14;;;;;;;;;;;;;;;21.82;49.86;101456.91;2189936;39;115775;-54
2021/06/25 04:06:46;;;;;;;;;;;;;;;21.82;49.74;101457.75;2190096;39;114871;-54
2021/06/25 04:08:18;;;;;;;;;;;;;;;21.83;49.61;101462.25;2196255;39;115020;-54
2021/06/25 04:09:50;;;;;;;;;;;;;;;21.79;49.41;101458.38;2198772;39;115187;-54
2021/06/25 04:11:22;;;;;;;;;;;;;;;21.81;49.72;101460.84;2192322;39;114862;-55
2021/06/25 04:12:53;;;;;;;;;;;;;;;21.80;49.70;101456.41;2196805;39;115217;-54
2021/06/25 04:14:25;;;;;;;;;;;;;;;21.78;49.81;101458.66;2187505;39;114800;-54
2021/06/25 04:15:57;;;;;;;;;;;;;;;21.79;49.26;101454.72;2184032;39;115061;-55
2021/06/25 04:17:29;;;;;;;;;;;;;;;21.79;49.52;101451.91;2194204;39;113747;-54
2021/06/25 04:19:01;;;;;;;;;;;;;;;21.78;49.66;101451.06;2194372;39;113815;-54
2021/06/25 04:20:32;;;;;;;;;;;;;;;21.74;49.75;101450.84;2196865;39;116309;-55
2021/06/25 04:22:04;;;;;;;;;;;;;;;21.79;50.35;101452.75;2197993;39;116620;-54
2021/06/25 04:23:36;;;;;;;;;;;;;;;21.77;50.07;101451.34;2198646;39;115705;-53
2021/06/25 04:25:08;;;;;;;;;;;;;;;21.81;50.31;101450.44;2197855;39;115796;-54
2021/06/25 04:26:41;;;;;;;;;;;;;;;21.79;50.02;101443.47;2193917;39;115628;-54
2021/06/25 04:28:14;;;;;;;;;;;;;;;21.77;49.87;101449.38;2197078;39;115767;-54
2021/06/25 04:29:46;;;;;;;;;;;;;;;21.77;50.23;101446.56;2195745;39;115863;-54
2021/06/25 04:31:18;;;;;;;;;;;;;;;21.76;50.18;101446.91;2197756;39;115771;-54
2021/06/25 04:32:49;;;;;;;;;;;;;;;21.77;50.26;101440.94;2197015;39;115509;-54
2021/06/25 04:34:21;;;;;;;;;;;;;;;21.77;49.87;101440.09;2198884;39;115575;-54
2021/06/25 04:35:53;;;;;;;;;;;;;;;21.75;49.72;101440.44;2197883;39;115516;-54
2021/06/25 04:37:25;;;;;;;;;;;;;;;21.77;50.20;101445.72;2190756;39;115507;-58
2021/06/25 04:38:57;;;;;;;;;;;;;;;21.75;50.05;101440.44;2195956;39;114656;-54
2021/06/25 04:40:30;;;;;;;;;;;;;;;21.74;50.05;101438.75;2200524;39;115606;-55
2021/06/25 04:42:04;;;;;;;;;;;;;;;21.73;50.16;101443.53;2191941;39;114191;-55
2021/06/25 04:43:36;;;;;;;;;;;;;;;21.74;50.16;101441.56;2187009;39;113853;-59
2021/06/25 04:45:08;;;;;;;;;;;;;;;21.76;50.00;101441.28;2183288;39;113850;-55
2021/06/25 04:46:40;;;;;;;;;;;;;;;21.75;50.50;101434.81;2188761;39;113663;-58
2021/06/25 04:48:13;;;;;;;;;;;;;;;21.74;50.24;101438.75;2191999;39;113772;-54
2021/06/25 04:49:45;;;;;;;;;;;;;;;21.76;50.26;101441.28;2190833;39;113839;-54
2021/06/25 04:51:17;;;;;;;;;;;;;;;21.76;50.31;101442.09;2195404;39;114314;-55
2021/06/25 04:52:48;;;;;;;;;;;;;;;21.74;50.43;101444.38;2198486;39;113843;-55
2021/06/25 04:54:20;;;;;;;;;;;;;;;21.72;50.74;101441.84;2196194;39;113874;-54
2021/06/25 04:55:52;;;;;;;;;;;;;;;21.71;50.56;101434.56;2197371;39;113974;-54
2021/06/25 04:57:24;;;;;;;;;;;;;;;21.71;50.64;101443.00;2190402;39;113739;-54
2021/06/25 04:58:55;;;;;;;;;;;;;;;21.71;50.75;101443.00;2195306;39;113752;-58
2021/06/25 05:00:27;;;;;;;;;;;;;;;21.71;50.65;101448.63;2190879;39;114140;-55
2021/06/25 05:02:00;;;;;;;;;;;;;;;21.70;50.47;101440.50;2196266;39;113708;-55
2021/06/25 05:03:33;;;;;;;;;;;;;;;21.73;50.43;101442.69;2198924;39;114444;-54
2021/06/25 05:05:05;;;;;;;;;;;;;;;21.70;50.59;101443.31;2197924;39;113903;-54
2021/06/25 05:06:37;;;;;;;;;;;;;;;21.70;50.46;101443.31;2188094;39;114791;-54
2021/06/25 05:08:10;;;;;;;;;;;;;;;21.70;50.58;101432.91;2188888;39;115122;-54
2021/06/25 05:09:41;;;;;;;;;;;;;;;21.73;50.91;101437.91;2194645;39;114973;-54
2021/06/25 05:11:13;;;;;;;;;;;;;;;21.70;50.59;101441.34;2197517;39;114751;-55
2021/06/25 05:12:45;;;;;;;;;;;;;;;21.69;50.67;101434.03;2192109;39;114928;-54
2021/06/25 05:14:17;;;;;;;;;;;;;;;21.70;50.69;101446.97;2188338;39;115039;-54
2021/06/25 05:15:48;;;;;;;;;;;;;;;21.69;50.95;101436.00;2195646;39;115183;-55
2021/06/25 05:17:20;;;;;;;;;;;;;;;21.69;50.58;101436.84;2197657;39;114789;-54
2021/06/25 05:18:52;;;;;;;;;;;;;;;21.68;50.83;101440.81;2191631;39;114937;-54
2021/06/25 05:20:24;;;;;;;;;;;;;;;21.69;50.78;101444.44;2190912;39;114869;-54
2021/06/25 05:21:56;;;;;;;;;;;;;;;21.68;50.58;101435.19;2186173;39;114784;-54
2021/06/25 05:23:28;;;;;;;;;;;;;;;21.67;50.86;101432.66;2186147;39;113852;-54
2021/06/25 05:25:00;;;;;;;;;;;;;;;21.69;51.14;101439.66;2180984;40;114817;-54
2021/06/25 05:26:32;;;;;;;;;;;;;;;21.67;51.35;101427.88;2183934;39;116121;-55
2021/06/25 05:28:04;;;;;;;;;;;;;;;21.70;51.22;101427.28;2191007;39;115827;-54
2021/06/25 05:29:35;;;;;;;;;;;;;;;21.73;51.32;101432.28;2179696;40;115921;-54
2021/06/25 05:31:07;;;;;;;;;;;;;;;21.71;51.49;101426.13;2182209;39;115432;-54
2021/06/25 05:32:39;;;;;;;;;;;;;;;21.69;51.57;101434.03;2180871;39;114881;-54
2021/06/25 05:34:10;;;;;;;;;;;;;;;21.72;51.57;101429.78;2190824;39;114593;-55
2021/06/25 05:35:43;;;;;;;;;;;;;;;21.71;51.93;101426.13;2192790;39;114743;-54
2021/06/25 05:37:15;;;;;;;;;;;;;;;21.73;51.94;101428.63;2185809;39;114968;-54
2021/06/25 05:38:47;;;;;;;;;;;;;;;21.75;52.26;101432.00;2184119;39;115556;-54
2021/06/25 05:40:18;;;;;;;;;;;;;;;21.78;52.31;101425.75;2184332;39;115881;-54
2021/06/25 05:41:50;;;;;;;;;;;;;;;21.79;52.55;101435.03;2182117;39;115786;-54
2021/06/25 05:43:22;;;;;;;;;;;;;;;21.80;52.79;101426.28;2187776;39;114529;-54
2021/06/25 05:44:54;;;;;;;;;;;;;;;21.90;52.93;101419.63;2180479;40;115463;-54
2021/06/25 05:46:25;;;;;;;;;;;;;;;21.87;53.01;101429.53;2183976;39;115460;-54
2021/06/25 05:47:57;;;;;;;;;;;;;;;21.88;53.15;101430.38;2187976;39;114100;-54
2021/06/25 05:49:29;;;;;;;;;;;;;;;21.91;53.12;101424.97;2191533;39;113605;-54
2021/06/25 05:51:01;;;;;;;;;;;;;;;21.93;53.15;101422.72;2189544;39;113752;-54
2021/06/25 05:52:32;;;;;;;;;;;;;;;21.95;53.31;101414.81;2189590;39;113974;-54
2021/06/25 05:54:04;;;;;;;;;;;;;;;21.97;53.58;101417.31;2192589;39;113647;-54
2021/06/25 05:55:36;;;;;;;;;;;;;;;22.00;53.74;101419.50;2185906;39;113770;-54
2021/06/25 05:57:08;;;;;;;;;;;;;;;22.02;53.86;101420.06;2183996;39;113940;-54
2021/06/25 05:58:40;;;;;;;;;;;;;;;22.05;53.96;101425.06;2181315;39;113727;-54
2021/06/25 06:00:12;;;;;;;;;;;;;;;22.08;53.84;101425.28;2186935;39;114001;-56
2021/06/25 06:01:44;;;;;;;;;;;;;;;22.10;53.75;101423.00;2179322;40;113878;-54
2021/06/25 06:03:16;;;;;;;;;;;;;;;22.13;53.85;101418.72;2181776;39;113644;-54
2021/06/25 06:04:47;;;;;;;;;;;;;;;22.16;53.85;101415.31;2189818;39;113937;-54
2021/06/25 06:06:19;;;;;;;;;;;;;;;22.18;53.79;101410.19;2186112;39;113894;-54
2021/06/25 06:07:51;;;;;;;;;;;;;;;22.22;53.77;101421.66;2187361;39;113730;-54
2021/06/25 06:09:23;;;;;;;;;;;;;;;22.24;53.86;101423.03;2182883;39;115282;-54
2021/06/25 06:10:55;;;;;;;;;;;;;;;22.27;53.40;101419.59;2186292;39;114756;-54
2021/06/25 06:12:27;;;;;;;;;;;;;;;22.31;53.27;101423.47;2183351;39;115504;-54
2021/06/25 06:13:59;;;;;;;;;;;;;;;22.34;53.40;101416.41;2190762;39;116628;-55
2021/06/25 06:15:31;;;;;;;;;;;;;;;22.35;53.40;101409.63;2177560;40;114992;-56
2021/06/25 06:17:03;;;;;;;;;;;;;;;22.39;53.27;101421.94;2184671;39;114833;-54
2021/06/25 06:18:43;;;;;;;;;;;;;;;22.41;53.26;101416.81;2185588;39;115003;-54
2021/06/25 06:20:19;;;;;;;;;;;;;;;22.43;52.94;101421.00;2179319;40;114904;-54
2021/06/25 06:35:13;;;;;;;;;;;;;;;22.61;52.39;101417.28;2182075;39;114855;-55
2021/06/25 06:36:46;;;;;;;;;;;;;;;22.65;52.38;101425.09;2179152;39;115503;-54
2021/06/25 06:38:17;;;;;;;;;;;;;;;22.65;52.33;101419.47;2179686;39;115812;-54
2021/06/25 06:39:49;;;;;;;;;;;;;;;22.67;52.19;101425.63;2185585;39;114903;-54
2021/06/25 06:41:21;;;;;;;;;;;;;;;22.69;52.22;101414.88;2179966;39;116143;-54
2021/06/25 06:42:53;;;;;;;;;;;;;;;22.72;51.85;101419.91;2177856;39;115602;-55
2021/06/25 06:44:28;;;;;;;;;;;;;;;22.73;51.83;101413.97;2186856;39;114624;-54
2021/06/25 06:46:00;;;;;;;;;;;;;;;22.74;51.92;101420.44;2187199;39;115617;-56
2021/06/25 06:47:32;;;;;;;;;;;;;;;22.75;52.31;101424.94;2185075;39;115557;-54
2021/06/25 06:49:04;;;;;;;;;;;;;;;22.76;52.08;101416.16;2187788;39;115493;-54
2021/06/25 06:50:35;;;;;;;;;;;;;;;22.78;52.10;101415.84;2182987;39;115524;-54
2021/06/25 06:52:07;;;;;;;;;;;;;;;22.79;52.02;101424.00;2187748;39;115392;-54
2021/06/25 06:53:43;;;;;;;;;;;;;;;22.80;51.85;101424.84;2190431;39;115760;-55
2021/06/25 06:55:16;;;;;;;;;;;;;;;22.80;51.75;101433.28;2180027;39;113997;-55
2021/06/25 06:56:49;;;;;;;;;;;;;;;22.81;51.59;101430.16;2177826;39;113923;-54
2021/06/25 06:58:21;;;;;;;;;;;;;;;22.81;51.40;101427.31;2183011;39;114377;-54
2021/06/25 06:59:53;;;;;;;;;;;;;;;22.82;51.49;101433.81;2187614;39;115074;-54
2021/06/25 07:01:26;;;;;;;;;;;;;;;22.82;51.56;101429.00;2182429;39;114085;-54
2021/06/25 07:03:16;;;;;;;;;;;;;;;22.82;51.57;101437.47;2181509;39;114013;-54
2021/06/25 07:04:48;;;;;;;;;;;;;;;22.81;51.40;101432.97;2187780;39;114074;-54
2021/06/25 07:06:20;;;;;;;;;;;;;;;22.84;51.92;101434.34;2184145;39;113980;-55
2021/06/25 07:07:52;;;;;;;;;;;;;;;22.83;51.96;101436.31;2180646;39;114098;-54
2021/06/25 07:09:24;;;;;;;;;;;;;;;22.74;51.38;101435.38;2186283;39;113939;-61
2021/06/25 07:10:55;;;;;;;;;;;;;;;22.51;51.69;101425.91;2179164;40;113803;-55
2021/06/25 07:12:27;;;;;;;;;;;;;;;22.39;52.02;101431.22;2183018;39;114184;-55
2021/06/25 07:13:59;;;;;;;;;;;;;;;22.37;52.04;101433.50;2179995;39;113881;-55
2021/06/25 07:15:31;;;;;;;;;;;;;;;22.17;52.84;101436.66;2186091;39;113653;-55
2021/06/25 07:17:03;;;;;;;;;;;;;;;22.32;52.17;101422.31;2180081;39;115000;-54
2021/06/25 07:18:35;;;;;;;;;;;;;;;22.32;52.31;101427.97;2179104;39;114828;-54
2021/06/25 07:20:07;;;;;;;;;;;;;;;22.35;52.21;101427.31;2186370;39;115340;-54
2021/06/25 07:21:39;;;;;;;;;;;;;;;22.35;53.05;101421.69;2186430;39;114785;-53
2021/06/25 07:23:10;;;;;;;;;;;;;;;22.33;52.75;101421.19;2190094;39;115452;-54
2021/06/25 07:24:42;;;;;;;;;;;;;;;22.40;52.67;101417.94;2192241;39;114414;-54
2021/06/25 07:26:14;;;;;;;;;;;;;;;22.42;52.85;101421.31;2189804;39;114853;-55
2021/06/25 07:27:46;;;;;;;;;;;;;;;22.42;52.64;101427.78;2190653;39;114815;-54
2021/06/25 07:29:18;;;;;;;;;;;;;;;22.45;52.58;101421.50;2199015;39;113861;-54
2021/06/25 07:30:50;;;;;;;;;;;;;;;22.48;52.39;101431.34;2195820;39;115263;-54
2021/06/25 07:32:22;;;;;;;;;;;;;;;22.48;52.56;101426.53;2195098;39;114977;-54
2021/06/25 07:33:54;;;;;;;;;;;;;;;22.49;52.27;101428.19;2196955;39;115000;-54
2021/06/25 07:35:25;;;;;;;;;;;;;;;22.53;52.31;101429.25;2192781;39;115116;-56
2021/06/25 07:36:57;;;;;;;;;;;;;;;22.53;52.29;101432.06;2184283;39;115279;-55
2021/06/25 07:38:29;;;;;;;;;;;;;;;22.53;52.49;101423.59;2191360;39;115038;-54
2021/06/25 07:40:01;;;;;;;;;;;;;;;22.57;52.39;101435.13;2197769;39;115470;-53
2021/06/25 07:41:33;;;;;;;;;;;;;;;22.56;52.37;101434.28;2188647;39;114605;-55
2021/06/25 07:43:05;;;;;;;;;;;;;;;22.57;52.60;101435.94;2189756;39;115801;-54
2021/06/25 07:44:37;;;;;;;;;;;;;;;22.57;52.53;101437.94;2191683;39;114993;-54
2021/06/25 07:46:09;;;;;;;;;;;;;;;22.58;52.49;101436.75;2191078;39;115111;-54
2021/06/25 07:47:42;;;;;;;;;;;;;;;22.54;52.75;101436.56;2183126;39;115646;-54
2021/06/25 07:49:14;;;;;;;;;;;;;;;22.55;52.57;101441.03;2181662;39;114565;-55
2021/06/25 07:50:48;;;;;;;;;;;;;;;22.57;52.40;101430.31;2191982;39;115875;-54
2021/06/25 07:52:20;;;;;;;;;;;;;;;22.58;52.69;101437.59;2194867;39;115852;-54
2021/06/25 07:53:53;;;;;;;;;;;;;;;22.58;52.60;101437.59;2191211;39;115538;-55
2021/06/25 07:55:25;;;;;;;;;;;;;;;22.59;52.79;101439.28;2183596;39;115444;-54
2021/06/25 07:56:58;;;;;;;;;;;;;;;22.58;52.71;101442.38;2194600;39;115013;-55
2021/06/25 07:58:29;;;;;;;;;;;;;;;22.58;52.68;101443.22;2192899;39;115754;-54
2021/06/25 08:00:02;;;;;;;;;;;;;;;22.56;52.52;101442.72;2195426;39;114463;-54
2021/06/25 08:01:34;;;;;;;;;;;;;;;22.59;52.84;101444.06;2199149;39;113716;-54
2021/06/25 08:03:07;;;;;;;;;;;;;;;22.59;52.94;101444.06;2198578;39;113835;-55
2021/06/25 08:04:44;;;;;;;;;;;;;;;22.56;52.73;101441.88;2190531;39;113808;-54